createdAt,value
2022-08-07T00:02:36.359Z,57.40
2022-08-07T00:07:24.060Z,57.40
2022-08-07T00:12:29.988Z,57.50
2022-08-07T00:17:35.265Z,57.60
2022-08-07T00:22:40.192Z,57.80
2022-08-07T00:27:53.434Z,58.20
2022-08-07T00:33:00.150Z,57.90
2022-08-07T00:38:05.323Z,58.20
2022-08-07T00:43:09.884Z,58.40
2022-08-07T00:48:13.407Z,58.30
2022-08-07T00:53:17.560Z,58.60
2022-08-07T00:58:21.207Z,58.90
2022-08-07T01:03:54.835Z,58.90
2022-08-07T01:08:53.206Z,58.80
2022-08-07T01:13:56.909Z,59.00
2022-08-07T01:19:01.925Z,59.10
2022-08-07T01:24:09.557Z,59.60
2022-08-07T01:29:13.054Z,60.00
2022-08-07T01:34:15.463Z,59.60
2022-08-07T01:39:19.715Z,59.30
2022-08-07T01:44:23.312Z,59.60
2022-08-07T01:49:25.876Z,59.50
2022-08-07T01:54:37.506Z,59.50
2022-08-07T01:59:45.226Z,60.20
2022-08-07T02:04:55.982Z,60.10
2022-08-07T02:10:02.466Z,60.00
2022-08-07T02:15:07.245Z,59.50
2022-08-07T02:20:17.221Z,59.70
2022-08-07T02:25:32.125Z,59.90
2022-08-07T02:30:48.655Z,60.00
2022-08-07T02:36:29.968Z,60.10
2022-08-07T02:41:21.770Z,60.20
2022-08-07T02:46:26.482Z,60.40
2022-08-07T02:51:42.602Z,60.40
2022-08-07T02:56:56.325Z,60.60
2022-08-07T03:02:02.160Z,61.20
2022-08-07T03:07:10.402Z,61.40
2022-08-07T03:12:22.681Z,61.40
2022-08-07T03:17:36.362Z,61.60
2022-08-07T03:22:58.709Z,61.40
2022-08-07T03:28:09.659Z,61.40
2022-08-07T03:33:32.198Z,61.70
2022-08-07T03:38:44.045Z,61.70
2022-08-07T03:43:57.341Z,61.90
2022-08-07T03:49:02.892Z,62.00
2022-08-07T03:54:36.393Z,62.00
2022-08-07T03:59:30.409Z,62.00
2022-08-07T04:04:35.410Z,62.50
2022-08-07T04:09:45.397Z,62.80
2022-08-07T04:14:54.609Z,62.70
2022-08-07T04:19:59.061Z,63.10
2022-08-07T04:25:02.338Z,62.80
2022-08-07T04:30:13.433Z,63.00
2022-08-07T04:35:24.204Z,63.70
2022-08-07T04:40:30.026Z,63.80
2022-08-07T04:45:57.447Z,64.40
2022-08-07T04:51:04.656Z,64.10
2022-08-07T04:58:09.809Z,64.10
2022-08-07T05:01:52.602Z,65.30
2022-08-07T05:07:20.510Z,66.20
2022-08-07T05:12:30.375Z,66.10
2022-08-07T05:17:52.803Z,65.70
2022-08-07T05:23:02.099Z,65.00
2022-08-07T05:28:20.468Z,64.00
2022-08-07T05:33:28.586Z,63.20
2022-08-07T05:39:01.105Z,62.10
2022-08-07T05:44:08.317Z,61.40
2022-08-07T05:49:17.298Z,60.20
2022-08-07T05:54:30.944Z,59.20
2022-08-07T05:59:38.978Z,58.00
2022-08-07T06:05:03.866Z,56.80
2022-08-07T06:10:15.139Z,55.90
2022-08-07T06:15:19.775Z,55.10
2022-08-07T06:20:25.685Z,54.40
2022-08-07T06:25:36.177Z,53.60
2022-08-07T06:30:45.641Z,52.70
2022-08-07T06:36:12.272Z,51.60
2022-08-07T06:41:18.032Z,50.30
2022-08-07T06:46:41.559Z,49.70
2022-08-07T06:51:49.880Z,49.20
2022-08-07T06:56:55.120Z,48.20
2022-08-07T07:01:59.115Z,47.50
2022-08-07T07:07:10.753Z,46.70
2022-08-07T07:12:41.719Z,45.70
2022-08-07T07:17:59.543Z,44.40
2022-08-07T07:24:05.990Z,43.90
2022-08-07T07:28:48.513Z,43.50
2022-08-07T07:34:03.736Z,43.10
2022-08-07T07:39:09.129Z,42.70
2022-08-07T07:44:21.414Z,42.30
2022-08-07T07:50:34.581Z,41.90
2022-08-07T07:54:55.863Z,41.10
2022-08-07T08:00:00.842Z,40.60
2022-08-07T08:05:11.372Z,41.20
2022-08-07T08:10:35.532Z,41.10
2022-08-07T08:15:54.958Z,40.50
2022-08-07T08:21:03.041Z,40.60
2022-08-07T08:26:08.338Z,40.70
2022-08-07T08:31:18.326Z,40.10
2022-08-07T08:36:34.618Z,39.90
2022-08-07T08:41:58.667Z,39.30
2022-08-07T08:47:09.772Z,38.30
2022-08-07T08:52:17.077Z,37.60
2022-08-07T08:57:30.387Z,36.60
2022-08-07T09:02:49.639Z,36.50
2022-08-07T09:08:04.897Z,35.90
2022-08-07T09:13:14.792Z,35.00
2022-08-07T09:18:33.537Z,35.40
2022-08-07T09:24:28.933Z,34.80
2022-08-07T09:30:05.532Z,35.00
2022-08-07T09:34:59.022Z,35.20
2022-08-07T09:40:17.898Z,34.80
2022-08-07T09:47:20.037Z,33.80
2022-08-07T09:52:15.901Z,33.70
2022-08-07T09:57:36.751Z,33.60
2022-08-07T10:04:04.703Z,32.70
2022-08-07T10:09:15.442Z,31.40
2022-08-07T10:14:38.784Z,31.50
2022-08-07T10:20:03.610Z,32.30
2022-08-07T10:25:22.553Z,31.70
2022-08-07T10:30:34.045Z,31.30
2022-08-07T10:36:05.515Z,31.70
2022-08-07T10:41:46.588Z,30.20
2022-08-07T10:47:00.145Z,30.00
2022-08-07T10:52:13.810Z,30.20
2022-08-07T10:57:34.684Z,30.70
2022-08-07T11:02:49.108Z,30.20
2022-08-07T11:08:04.968Z,30.00
2022-08-07T11:14:42.200Z,30.00
2022-08-07T11:18:50.904Z,29.50
2022-08-07T11:24:04.235Z,29.40
2022-08-07T11:29:13.095Z,29.60
2022-08-07T11:34:42.408Z,29.50
2022-08-07T11:40:03.926Z,29.30
2022-08-07T11:45:20.446Z,29.60
2022-08-07T11:50:33.571Z,29.80
2022-08-07T11:56:25.585Z,30.20
2022-08-07T12:01:58.734Z,29.20
2022-08-07T12:07:09.080Z,29.20
2022-08-07T12:12:30.795Z,29.20
2022-08-07T12:17:55.978Z,29.00
2022-08-07T12:23:17.967Z,28.20
2022-08-07T12:28:52.879Z,27.90
2022-08-07T12:34:01.954Z,28.80
2022-08-07T12:39:42.143Z,29.10
2022-08-07T12:44:33.684Z,29.70
2022-08-07T12:49:51.382Z,30.00
2022-08-07T12:55:09.317Z,30.00
2022-08-07T13:00:20.721Z,30.10
2022-08-07T13:06:03.480Z,30.40
2022-08-07T13:11:24.108Z,30.50
2022-08-07T13:16:36.529Z,30.80
2022-08-07T13:21:57.378Z,30.30
2022-08-07T13:27:12.728Z,30.30
2022-08-07T13:32:32.950Z,29.90
2022-08-07T13:37:49.819Z,30.50
2022-08-07T13:43:05.548Z,30.50
2022-08-07T13:48:27.767Z,30.60
2022-08-07T13:53:59.455Z,29.90
2022-08-07T13:59:12.066Z,30.20
2022-08-07T14:04:21.460Z,30.70
2022-08-07T14:10:01.325Z,31.20
2022-08-07T14:14:56.127Z,31.50
2022-08-07T14:20:40.107Z,31.50
2022-08-07T14:25:39.582Z,31.50
2022-08-07T14:30:51.927Z,31.70
2022-08-07T14:35:59.331Z,32.20
2022-08-07T14:41:05.479Z,31.90
2022-08-07T14:46:22.635Z,32.20
2022-08-07T14:52:04.440Z,32.20
2022-08-07T14:57:00.472Z,32.30
2022-08-07T15:02:32.980Z,32.10
2022-08-07T15:07:51.240Z,32.30
2022-08-07T15:12:58.796Z,32.30
2022-08-07T15:18:05.991Z,32.50
2022-08-07T15:25:04.082Z,32.80
2022-08-07T15:30:08.461Z,32.50
2022-08-07T15:34:22.663Z,32.90
2022-08-07T15:39:59.105Z,32.90
2022-08-07T15:45:04.922Z,32.70
2022-08-07T15:51:01.688Z,33.00
2022-08-07T15:55:58.627Z,33.20
2022-08-07T16:01:13.575Z,33.10
2022-08-07T16:06:29.831Z,33.30
2022-08-07T16:12:03.409Z,33.50
2022-08-07T16:18:01.788Z,33.90
2022-08-07T16:23:54.186Z,33.70
2022-08-07T16:30:06.977Z,34.00
2022-08-07T16:34:40.294Z,34.30
2022-08-07T16:40:09.517Z,34.20
2022-08-07T16:46:47.285Z,34.20
2022-08-07T16:51:52.137Z,34.60
2022-08-07T16:56:53.242Z,34.80
2022-08-07T17:02:05.847Z,35.00
2022-08-07T17:07:28.116Z,35.10
2022-08-07T17:12:47.766Z,35.20
2022-08-07T17:18:10.461Z,35.20
2022-08-07T17:23:40.458Z,35.50
2022-08-07T17:28:59.763Z,35.80
2022-08-07T17:34:34.700Z,35.80
2022-08-07T17:39:57.951Z,35.90
2022-08-07T17:45:14.988Z,36.20
2022-08-07T17:50:30.466Z,36.60
2022-08-07T17:56:00.819Z,37.00
2022-08-07T18:01:18.056Z,37.60
2022-08-07T18:06:36.861Z,38.20
2022-08-07T18:12:16.823Z,38.80
2022-08-07T18:18:46.069Z,39.10
2022-08-07T18:23:04.670Z,40.10
2022-08-07T18:28:35.283Z,40.20
2022-08-07T18:33:58.274Z,40.60
2022-08-07T18:40:07.244Z,41.30
2022-08-07T18:45:43.814Z,41.40
2022-08-07T18:50:57.766Z,42.10
2022-08-07T18:56:14.432Z,41.90
2022-08-07T19:02:19.070Z,42.30
2022-08-07T19:06:55.144Z,42.40
2022-08-07T19:12:15.133Z,40.60
2022-08-07T19:17:59.401Z,42.80
2022-08-07T19:23:17.838Z,42.70
2022-08-07T19:29:02.825Z,44.00
2022-08-07T19:33:58.399Z,44.10
2022-08-07T19:39:09.170Z,43.90
2022-08-07T19:44:21.826Z,44.30
2022-08-07T19:49:58.102Z,44.80
2022-08-07T19:54:56.516Z,44.80
2022-08-07T20:00:09.002Z,45.20
2022-08-07T20:05:16.537Z,45.90
2022-08-07T20:10:37.234Z,45.90
2022-08-07T20:15:57.824Z,46.60
2022-08-07T20:21:02.635Z,46.50
2022-08-07T20:26:10.151Z,46.60
2022-08-07T20:31:21.297Z,47.40
2022-08-07T20:36:29.055Z,47.80
2022-08-07T20:41:38.493Z,48.10
2022-08-07T20:46:46.715Z,48.10
2022-08-07T20:52:14.267Z,48.70
2022-08-07T20:57:24.069Z,48.70
2022-08-07T21:02:31.255Z,49.20
2022-08-07T21:07:35.555Z,49.40
2022-08-07T21:12:38.778Z,49.60
2022-08-07T21:18:03.625Z,49.90
2022-08-07T21:23:21.475Z,50.40
2022-08-07T21:28:48.112Z,50.60
2022-08-07T21:34:10.179Z,49.70
2022-08-07T21:39:46.202Z,51.00
2022-08-07T21:44:50.930Z,50.70
2022-08-07T21:50:03.593Z,51.20
2022-08-07T21:55:27.752Z,51.70
2022-08-07T22:00:32.068Z,52.10
2022-08-07T22:05:48.247Z,51.80
2022-08-07T22:10:58.274Z,52.70
2022-08-07T22:16:43.195Z,52.70
2022-08-07T22:22:05.214Z,52.50
2022-08-07T22:27:06.554Z,53.40
2022-08-07T22:32:29.780Z,53.10
2022-08-07T22:38:01.721Z,53.60
2022-08-07T22:43:12.487Z,54.20
2022-08-07T22:48:31.340Z,54.00
2022-08-07T22:54:07.001Z,53.40
2022-08-07T22:59:36.575Z,54.60
2022-08-07T23:04:58.555Z,55.10
2022-08-07T23:10:36.287Z,53.90
2022-08-07T23:16:06.618Z,54.30
2022-08-07T23:21:30.086Z,53.20
2022-08-07T23:26:58.896Z,54.60
2022-08-07T23:34:23.842Z,55.60
2022-08-07T23:38:01.278Z,55.20
2022-08-07T23:43:43.575Z,55.70
2022-08-07T23:49:42.323Z,56.50
2022-08-07T23:54:59.420Z,57.00
